createdAt,value
2023-06-16T00:01:32.489Z,3.80
2023-06-16T00:04:00.590Z,4.00
2023-06-16T00:06:30.401Z,4.00
2023-06-16T00:09:01.664Z,3.50
2023-06-16T00:11:30.222Z,3.90
2023-06-16T00:13:58.093Z,4.00
2023-06-16T00:16:27.080Z,3.90
2023-06-16T00:18:58.718Z,3.40
2023-06-16T00:21:28.152Z,3.60
2023-06-16T00:23:56.581Z,4.30
2023-06-16T00:26:24.717Z,3.90
2023-06-16T00:28:52.336Z,3.70
2023-06-16T00:31:19.901Z,4.00
2023-06-16T00:33:47.377Z,3.90
2023-06-16T00:36:14.927Z,3.70
2023-06-16T00:38:42.412Z,4.10
2023-06-16T00:41:09.894Z,3.40
2023-06-16T00:43:37.377Z,3.50
2023-06-16T00:46:06.418Z,3.50
2023-06-16T00:48:34.546Z,3.40
2023-06-16T00:51:03.314Z,3.70
2023-06-16T00:53:32.765Z,4.20
2023-06-16T00:56:00.645Z,3.90
2023-06-16T00:58:31.510Z,4.00
2023-06-16T01:01:00.426Z,3.50
2023-06-16T01:03:28.651Z,3.90
2023-06-16T01:06:01.065Z,3.60
2023-06-16T01:08:45.421Z,3.90
2023-06-16T01:11:34.435Z,3.70
2023-06-16T01:14:15.570Z,3.90
2023-06-16T01:16:45.964Z,3.50
2023-06-16T01:19:23.926Z,3.70
2023-06-16T01:21:58.004Z,3.90
2023-06-16T01:24:27.032Z,3.70
2023-06-16T01:26:58.448Z,3.50
2023-06-16T01:29:27.313Z,3.70
2023-06-16T01:32:00.141Z,3.50
2023-06-16T01:34:29.138Z,4.10
2023-06-16T01:36:58.394Z,4.10
2023-06-16T01:39:26.821Z,3.70
2023-06-16T01:41:55.716Z,3.70
2023-06-16T01:44:24.197Z,3.80
2023-06-16T01:46:52.348Z,3.50
2023-06-16T01:49:20.427Z,3.50
2023-06-16T01:51:48.272Z,3.70
2023-06-16T01:54:15.879Z,3.00
2023-06-16T01:56:43.397Z,3.50
2023-06-16T01:59:10.946Z,3.80
2023-06-16T02:01:46.783Z,3.90
2023-06-16T02:04:34.326Z,3.70
2023-06-16T02:07:12.376Z,3.80
2023-06-16T02:09:41.153Z,3.80
2023-06-16T02:12:13.100Z,3.50
2023-06-16T02:14:41.739Z,3.60
2023-06-16T02:17:10.672Z,4.10
2023-06-16T02:19:39.478Z,3.50
2023-06-16T02:22:07.120Z,3.80
2023-06-16T02:24:36.218Z,3.60
2023-06-16T02:27:04.158Z,3.90
2023-06-16T02:32:00.832Z,3.60
2023-06-16T02:34:31.188Z,3.80
2023-06-16T02:36:59.038Z,4.60
2023-06-16T02:39:26.509Z,3.60
2023-06-16T02:41:53.967Z,3.60
2023-06-16T02:44:21.506Z,3.90
2023-06-16T02:46:49.169Z,3.70
2023-06-16T02:49:17.841Z,3.80
2023-06-16T02:51:45.572Z,3.40
2023-06-16T02:54:13.551Z,3.40
2023-06-16T02:56:41.053Z,4.10
2023-06-16T02:59:09.372Z,3.30
2023-06-16T03:01:37.888Z,3.60
2023-06-16T03:04:05.418Z,4.60
2023-06-16T03:06:35.616Z,4.20
2023-06-16T03:09:07.020Z,4.50
2023-06-16T03:11:34.481Z,4.00
2023-06-16T03:14:02.310Z,4.10
2023-06-16T03:16:30.909Z,3.70
2023-06-16T03:18:58.374Z,3.90
2023-06-16T03:21:25.868Z,3.50
2023-06-16T03:23:54.426Z,3.70
2023-06-16T03:26:23.322Z,3.90
2023-06-16T03:28:51.589Z,3.90
2023-06-16T03:31:20.452Z,3.40
2023-06-16T03:33:48.119Z,3.70
2023-06-16T03:36:15.851Z,3.50
2023-06-16T03:38:43.325Z,3.90
2023-06-16T03:41:10.946Z,4.00
2023-06-16T03:43:38.566Z,4.00
2023-06-16T03:46:06.226Z,3.60
2023-06-16T03:48:33.800Z,3.40
2023-06-16T03:51:01.496Z,3.30
2023-06-16T03:53:29.604Z,3.00
2023-06-16T03:55:57.246Z,3.40
2023-06-16T03:58:24.990Z,3.80
2023-06-16T04:00:52.510Z,3.10
2023-06-16T04:03:20.045Z,3.90
2023-06-16T04:05:47.707Z,3.40
2023-06-16T04:08:15.245Z,3.70
2023-06-16T04:10:42.717Z,3.70
2023-06-16T04:13:10.463Z,4.10
2023-06-16T04:15:38.044Z,3.80
2023-06-16T04:18:05.684Z,3.90
2023-06-16T04:20:33.471Z,3.30
2023-06-16T04:23:01.523Z,2.90
2023-06-16T04:25:29.659Z,3.30
2023-06-16T04:27:59.905Z,3.40
2023-06-16T04:30:31.481Z,3.70
2023-06-16T04:33:00.228Z,3.50
2023-06-16T04:35:32.634Z,3.40
2023-06-16T04:38:01.448Z,3.60
2023-06-16T04:40:28.964Z,4.10
2023-06-16T04:42:57.251Z,3.80
2023-06-16T04:47:53.372Z,3.30
2023-06-16T04:50:21.722Z,3.00
2023-06-16T04:52:51.299Z,3.10
2023-06-16T04:55:19.002Z,3.10
2023-06-16T04:57:46.581Z,3.10
2023-06-16T05:00:17.826Z,3.30
2023-06-16T05:02:45.683Z,3.30
2023-06-16T05:05:13.295Z,3.40
2023-06-16T05:07:40.849Z,3.30
2023-06-16T05:10:09.711Z,3.10
2023-06-16T05:12:37.284Z,2.80
2023-06-16T05:15:05.995Z,3.30
2023-06-16T05:17:33.505Z,3.50
2023-06-16T05:20:01.297Z,3.60
2023-06-16T05:22:28.862Z,3.00
2023-06-16T05:24:58.129Z,2.60
2023-06-16T05:27:26.535Z,3.10
2023-06-16T05:29:57.654Z,3.10
2023-06-16T05:32:27.160Z,3.00
2023-06-16T05:34:54.759Z,3.70
2023-06-16T05:37:23.613Z,3.40
2023-06-16T05:39:52.303Z,3.40
2023-06-16T05:42:20.482Z,3.40
2023-06-16T05:44:48.525Z,3.40
2023-06-16T05:47:16.236Z,15.60
2023-06-16T05:49:44.172Z,11.50
2023-06-16T05:52:11.774Z,18.10
2023-06-16T05:54:39.465Z,11.30
2023-06-16T05:57:07.565Z,30.60
2023-06-16T05:59:37.258Z,16.60
2023-06-16T06:02:05.355Z,35.10
2023-06-16T06:04:34.235Z,34.90
2023-06-16T06:07:02.183Z,14.10
2023-06-16T06:09:30.595Z,60.30
2023-06-16T06:11:58.182Z,26.60
2023-06-16T06:14:25.833Z,60.60
2023-06-16T06:16:53.324Z,29.90
2023-06-16T06:19:23.184Z,24.00
2023-06-16T06:21:51.082Z,20.40
2023-06-16T06:24:19.807Z,42.20
2023-06-16T06:26:47.672Z,36.00
2023-06-16T06:29:16.670Z,23.30
2023-06-16T06:31:44.911Z,70.50
2023-06-16T06:36:43.571Z,35.70
2023-06-16T06:39:11.328Z,16.50
2023-06-16T06:41:41.273Z,21.20
2023-06-16T06:44:09.777Z,11.10
2023-06-16T06:46:37.513Z,18.00
2023-06-16T06:49:05.370Z,11.70
2023-06-16T06:51:32.992Z,6.70
2023-06-16T06:54:00.752Z,5.60
2023-06-16T06:56:28.538Z,5.00
2023-06-16T06:58:56.130Z,3.80
2023-06-16T07:01:23.789Z,4.70
2023-06-16T07:03:51.509Z,4.40
2023-06-16T07:06:19.224Z,3.70
2023-06-16T07:08:46.763Z,4.40
2023-06-16T07:11:14.347Z,3.40
2023-06-16T07:13:41.841Z,3.20
2023-06-16T07:16:09.383Z,2.90
2023-06-16T07:18:38.207Z,3.20
2023-06-16T07:21:06.025Z,3.70
2023-06-16T07:23:33.642Z,2.90
2023-06-16T07:26:01.265Z,2.70
2023-06-16T07:28:29.292Z,2.80
2023-06-16T07:33:24.381Z,3.00
2023-06-16T07:35:51.903Z,2.80
2023-06-16T07:38:19.386Z,3.00
2023-06-16T07:40:47.177Z,3.30
2023-06-16T07:43:14.839Z,3.30
2023-06-16T07:45:42.668Z,3.10
2023-06-16T07:48:11.990Z,3.00
2023-06-16T07:50:40.511Z,3.00
2023-06-16T07:53:08.165Z,2.80
2023-06-16T07:55:35.984Z,3.00
2023-06-16T07:58:03.622Z,2.90
2023-06-16T08:00:31.069Z,3.00
2023-06-16T08:02:58.907Z,2.80
2023-06-16T08:07:54.230Z,3.10
2023-06-16T08:10:22.770Z,3.20
2023-06-16T08:12:52.831Z,3.20
2023-06-16T08:15:21.695Z,3.20
2023-06-16T08:17:50.187Z,3.00
2023-06-16T08:20:18.450Z,3.40
2023-06-16T08:22:46.389Z,3.30
2023-06-16T08:25:14.184Z,6.20
2023-06-16T08:27:41.807Z,3.10
2023-06-16T08:30:11.266Z,3.40
2023-06-16T08:32:41.611Z,3.00
2023-06-16T08:35:11.856Z,3.10
2023-06-16T08:37:40.491Z,2.70
2023-06-16T08:40:09.567Z,3.20
2023-06-16T08:42:42.728Z,3.20
2023-06-16T08:45:11.517Z,2.90
2023-06-16T08:47:39.500Z,3.10
2023-06-16T08:50:08.895Z,3.30
2023-06-16T08:52:44.578Z,3.20
2023-06-16T08:55:15.813Z,3.30
2023-06-16T08:57:50.559Z,3.20
2023-06-16T09:00:19.632Z,3.20
2023-06-16T09:02:57.370Z,3.90
2023-06-16T09:05:27.056Z,3.20
2023-06-16T09:07:55.327Z,3.30
2023-06-16T09:10:23.512Z,3.10
2023-06-16T09:12:59.511Z,4.80
2023-06-16T09:15:27.909Z,3.40
2023-06-16T09:17:57.261Z,3.00
2023-06-16T09:20:25.463Z,3.30
2023-06-16T09:23:01.795Z,2.90
2023-06-16T09:25:34.174Z,4.10
2023-06-16T09:28:10.583Z,3.70
2023-06-16T09:30:41.510Z,3.20
2023-06-16T09:33:12.897Z,2.70
2023-06-16T09:35:43.189Z,3.10
2023-06-16T09:38:12.307Z,2.60
2023-06-16T09:40:41.007Z,2.90
2023-06-16T09:43:11.530Z,2.80
2023-06-16T09:45:39.391Z,2.90
2023-06-16T09:50:38.972Z,2.80
2023-06-16T09:53:08.143Z,2.80
2023-06-16T09:55:41.589Z,2.50
2023-06-16T09:58:09.548Z,2.30
2023-06-16T10:00:37.097Z,2.60
2023-06-16T10:03:11.099Z,2.70
2023-06-16T10:05:41.662Z,2.70
2023-06-16T10:08:11.435Z,2.60
2023-06-16T10:10:44.103Z,2.80
2023-06-16T10:13:12.860Z,2.80
2023-06-16T10:15:44.275Z,2.70
2023-06-16T10:18:17.683Z,2.80
2023-06-16T10:20:48.256Z,2.40
2023-06-16T10:23:16.896Z,2.50
2023-06-16T10:25:46.381Z,2.70
2023-06-16T10:28:15.245Z,2.70
2023-06-16T10:30:45.139Z,2.50
2023-06-16T10:33:18.838Z,2.40
2023-06-16T10:36:03.689Z,2.30
2023-06-16T10:38:40.571Z,2.30
2023-06-16T10:41:16.264Z,2.50
2023-06-16T10:43:44.848Z,2.30
2023-06-16T10:46:14.951Z,2.30
2023-06-16T10:49:13.277Z,2.70
2023-06-16T10:51:51.464Z,2.70
2023-06-16T10:54:46.274Z,2.70
2023-06-16T10:57:15.226Z,2.80
2023-06-16T11:00:12.251Z,2.70
2023-06-16T11:02:55.356Z,2.60
2023-06-16T11:05:24.253Z,2.60
2023-06-16T11:07:59.347Z,2.80
2023-06-16T11:10:27.263Z,2.80
2023-06-16T11:12:55.091Z,2.70
2023-06-16T11:15:24.178Z,2.80
2023-06-16T11:17:52.924Z,2.60
2023-06-16T11:20:21.552Z,2.80
2023-06-16T11:22:51.828Z,2.70
2023-06-16T11:25:19.357Z,2.70
2023-06-16T11:27:47.140Z,2.40
2023-06-16T11:30:15.686Z,2.70
2023-06-16T11:32:44.053Z,2.70
2023-06-16T11:35:12.000Z,2.70
2023-06-16T11:40:24.807Z,2.80
2023-06-16T11:42:57.430Z,2.60
2023-06-16T11:45:27.677Z,2.80
2023-06-16T11:47:58.877Z,3.00
2023-06-16T11:50:27.804Z,3.10
2023-06-16T11:52:56.372Z,2.80
2023-06-16T11:55:29.012Z,2.70
2023-06-16T12:00:28.222Z,2.90
2023-06-16T12:02:56.495Z,3.00
2023-06-16T12:05:28.785Z,3.00
2023-06-16T12:07:56.753Z,2.90
2023-06-16T12:10:25.978Z,2.50
2023-06-16T12:12:53.784Z,2.50
2023-06-16T12:17:57.123Z,2.60
2023-06-16T12:20:25.425Z,2.40
2023-06-16T12:22:57.124Z,2.60
2023-06-16T12:25:24.733Z,3.00
2023-06-16T12:27:53.120Z,3.10
2023-06-16T12:30:33.043Z,2.70
2023-06-16T12:33:13.875Z,3.00
2023-06-16T12:35:42.621Z,2.90
2023-06-16T12:38:10.310Z,3.80
2023-06-16T12:40:41.910Z,4.10
2023-06-16T12:43:26.054Z,3.90
2023-06-16T12:45:54.076Z,2.60
2023-06-16T12:48:22.570Z,2.90
2023-06-16T12:50:50.680Z,2.60
2023-06-16T12:55:46.284Z,3.50
2023-06-16T12:58:13.830Z,2.90
2023-06-16T13:00:42.028Z,3.00
2023-06-16T13:03:10.246Z,3.30
2023-06-16T13:05:39.014Z,2.60
2023-06-16T13:08:06.716Z,2.80
2023-06-16T13:10:34.254Z,2.70
2023-06-16T13:13:03.073Z,2.80
2023-06-16T13:15:30.960Z,3.20
2023-06-16T13:17:58.841Z,3.00
2023-06-16T13:20:26.622Z,2.70
2023-06-16T13:22:54.171Z,2.60
2023-06-16T13:25:22.227Z,3.90
2023-06-16T13:27:49.960Z,4.20
2023-06-16T13:30:19.927Z,3.20
2023-06-16T13:32:47.812Z,5.30
2023-06-16T13:37:42.764Z,2.50
2023-06-16T13:40:11.404Z,5.10
2023-06-16T13:42:39.332Z,2.60
2023-06-16T13:45:07.590Z,2.60
2023-06-16T13:47:36.348Z,2.40
2023-06-16T13:50:04.141Z,3.20
2023-06-16T13:52:32.609Z,2.90
2023-06-16T13:55:00.908Z,2.30
2023-06-16T13:57:28.973Z,2.40
2023-06-16T13:59:59.957Z,2.50
2023-06-16T14:02:27.625Z,2.60
2023-06-16T14:07:22.729Z,8.10
2023-06-16T14:09:50.356Z,3.00
2023-06-16T14:12:17.807Z,2.50
2023-06-16T14:14:46.065Z,2.60
2023-06-16T14:17:13.865Z,4.70
2023-06-16T14:22:09.471Z,2.40
2023-06-16T14:24:37.097Z,2.60
2023-06-16T14:27:05.136Z,2.40
2023-06-16T14:29:32.607Z,2.00
2023-06-16T14:32:02.182Z,2.10
2023-06-16T14:34:30.743Z,2.90
2023-06-16T14:36:58.851Z,2.30
2023-06-16T14:39:26.672Z,2.30
2023-06-16T14:41:54.420Z,2.80
2023-06-16T14:44:22.060Z,3.10
2023-06-16T14:46:49.906Z,2.20
2023-06-16T14:49:17.719Z,2.40
2023-06-16T14:54:13.260Z,2.40
2023-06-16T14:56:41.367Z,2.30
2023-06-16T14:59:09.086Z,2.40
2023-06-16T15:01:36.983Z,2.20
2023-06-16T15:04:05.702Z,2.20
2023-06-16T15:06:33.474Z,3.00
2023-06-16T15:09:01.395Z,2.30
2023-06-16T15:11:29.583Z,2.20
2023-06-16T15:14:01.883Z,2.20
2023-06-16T15:16:30.467Z,2.10
2023-06-16T15:18:59.013Z,2.30
2023-06-16T15:21:26.668Z,2.20
2023-06-16T15:23:55.939Z,2.40
2023-06-16T15:26:23.500Z,2.20
2023-06-16T15:28:51.086Z,2.20
2023-06-16T15:33:46.628Z,1.80
2023-06-16T15:38:41.789Z,2.20
2023-06-16T15:41:11.161Z,1.90
2023-06-16T15:43:38.633Z,2.20
2023-06-16T15:46:06.334Z,2.20
2023-06-16T15:51:01.389Z,2.10
2023-06-16T15:53:28.921Z,2.10
2023-06-16T15:55:56.410Z,2.00
2023-06-16T15:58:24.026Z,2.10
2023-06-16T16:00:51.706Z,2.10
2023-06-16T16:05:46.901Z,1.70
2023-06-16T16:08:14.584Z,2.00
2023-06-16T16:10:42.202Z,2.00
2023-06-16T16:13:09.789Z,1.70
2023-06-16T16:15:38.745Z,2.10
2023-06-16T16:18:08.437Z,2.00
2023-06-16T16:20:36.137Z,1.70
2023-06-16T16:25:31.099Z,1.90
2023-06-16T16:27:59.207Z,2.00
2023-06-16T16:30:26.920Z,2.00
2023-06-16T16:35:22.448Z,1.80
2023-06-16T16:37:50.299Z,1.90
2023-06-16T16:42:46.491Z,1.70
2023-06-16T16:45:14.472Z,2.20
2023-06-16T16:47:42.056Z,2.10
2023-06-16T16:50:10.289Z,2.20
2023-06-16T16:52:38.867Z,2.00
2023-06-16T16:55:06.611Z,1.90
2023-06-16T17:00:01.547Z,1.90
2023-06-16T17:02:29.189Z,2.00
2023-06-16T17:04:56.865Z,1.90
2023-06-16T17:07:24.590Z,2.20
2023-06-16T17:09:52.194Z,2.20
2023-06-16T17:12:20.154Z,2.10
2023-06-16T17:14:47.669Z,2.00
2023-06-16T17:17:15.179Z,2.10
2023-06-16T17:19:42.646Z,2.20
2023-06-16T17:22:10.234Z,1.90
2023-06-16T17:24:38.069Z,1.90
2023-06-16T17:27:06.246Z,2.10
2023-06-16T17:29:33.801Z,2.00
2023-06-16T17:32:01.459Z,1.80
2023-06-16T17:34:29.054Z,2.60
2023-06-16T17:36:58.672Z,2.10
2023-06-16T17:39:26.594Z,1.90
2023-06-16T17:41:55.626Z,1.80
2023-06-16T17:44:25.473Z,2.10
2023-06-16T17:46:53.085Z,2.00
2023-06-16T17:49:24.123Z,2.10
2023-06-16T17:51:51.970Z,2.20
2023-06-16T17:56:47.747Z,1.90
2023-06-16T17:59:15.243Z,1.90
2023-06-16T18:01:43.051Z,2.00
2023-06-16T18:04:10.592Z,2.00
2023-06-16T18:06:38.186Z,2.00
2023-06-16T18:09:05.703Z,2.10
2023-06-16T18:11:33.449Z,2.10
2023-06-16T18:14:01.922Z,1.90
2023-06-16T18:16:29.501Z,1.90
2023-06-16T18:18:58.697Z,2.00
2023-06-16T18:21:28.013Z,2.10
2023-06-16T18:23:56.484Z,1.90
2023-06-16T18:26:24.006Z,2.10
2023-06-16T18:28:51.516Z,2.20
2023-06-16T18:31:20.956Z,2.10
2023-06-16T18:33:48.477Z,2.10
2023-06-16T18:36:16.726Z,2.00
2023-06-16T18:38:50.021Z,2.20
2023-06-16T18:41:18.046Z,1.90
2023-06-16T18:43:45.611Z,2.10
2023-06-16T18:46:13.095Z,2.00
2023-06-16T18:48:40.680Z,2.00
2023-06-16T18:51:08.469Z,2.10
2023-06-16T18:53:36.228Z,2.70
2023-06-16T18:56:04.400Z,2.50
2023-06-16T18:58:32.518Z,2.20
2023-06-16T19:01:00.304Z,1.80
2023-06-16T19:05:55.553Z,1.90
2023-06-16T19:08:23.699Z,2.10
2023-06-16T19:10:51.320Z,2.20
2023-06-16T19:13:19.109Z,2.10
2023-06-16T19:15:46.665Z,2.20
2023-06-16T19:18:14.145Z,2.10
2023-06-16T19:20:43.646Z,2.00
2023-06-16T19:23:12.505Z,1.90
2023-06-16T19:25:41.117Z,2.00
2023-06-16T19:28:08.808Z,2.80
2023-06-16T19:30:36.913Z,2.20
2023-06-16T19:33:04.620Z,2.60
2023-06-16T19:37:59.757Z,2.40
2023-06-16T19:40:27.299Z,3.30
2023-06-16T19:42:54.797Z,2.80
2023-06-16T19:45:23.625Z,2.70
2023-06-16T19:47:54.277Z,2.50
2023-06-16T19:50:24.806Z,2.90
2023-06-16T19:52:52.466Z,2.80
2023-06-16T19:55:20.855Z,2.10
2023-06-16T19:57:48.406Z,2.70
2023-06-16T20:00:16.418Z,2.30
2023-06-16T20:02:44.125Z,2.60
2023-06-16T20:05:11.959Z,2.60
2023-06-16T20:07:41.098Z,2.40
2023-06-16T20:10:09.001Z,2.70
2023-06-16T20:12:36.593Z,2.60
2023-06-16T20:15:04.612Z,1.90
2023-06-16T20:17:34.168Z,2.50
2023-06-16T20:20:09.502Z,2.40
2023-06-16T20:22:38.242Z,2.50
2023-06-16T20:25:09.208Z,2.50
2023-06-16T20:27:40.045Z,2.30
2023-06-16T20:30:08.460Z,2.20
2023-06-16T20:32:36.816Z,2.30
2023-06-16T20:35:06.168Z,2.20
2023-06-16T20:37:33.998Z,2.30
2023-06-16T20:40:09.957Z,2.10
2023-06-16T20:42:38.252Z,2.10
2023-06-16T20:47:35.134Z,2.20
2023-06-16T20:50:04.887Z,2.20
2023-06-16T20:52:32.382Z,2.30
2023-06-16T20:55:01.749Z,2.30
2023-06-16T20:57:29.391Z,2.20
2023-06-16T20:59:57.743Z,2.30
2023-06-16T21:02:28.777Z,2.40
2023-06-16T21:04:57.534Z,2.20
2023-06-16T21:07:26.408Z,2.30
2023-06-16T21:09:55.200Z,2.00
2023-06-16T21:12:23.450Z,2.10
2023-06-16T21:14:51.240Z,2.70
2023-06-16T21:17:18.852Z,2.30
2023-06-16T21:19:47.476Z,2.40
2023-06-16T21:22:16.052Z,2.40
2023-06-16T21:24:44.302Z,2.20
2023-06-16T21:27:12.012Z,2.10
2023-06-16T21:29:39.559Z,2.20
2023-06-16T21:32:07.357Z,2.00
2023-06-16T21:34:34.899Z,2.40
2023-06-16T21:37:03.351Z,2.30
2023-06-16T21:39:32.314Z,2.30
2023-06-16T21:42:00.055Z,2.00
2023-06-16T21:44:27.554Z,2.40
2023-06-16T21:46:55.000Z,2.60
2023-06-16T21:49:22.504Z,2.60
2023-06-16T21:51:50.269Z,3.10
2023-06-16T21:54:17.709Z,3.20
2023-06-16T21:56:45.449Z,2.60
2023-06-16T21:59:12.980Z,2.40
2023-06-16T22:01:40.626Z,2.60
2023-06-16T22:04:08.210Z,2.30
2023-06-16T22:06:35.731Z,2.30
2023-06-16T22:09:05.384Z,2.70
2023-06-16T22:11:33.094Z,2.50
2023-06-16T22:14:00.694Z,2.40
2023-06-16T22:16:28.213Z,2.40
2023-06-16T22:18:56.808Z,2.80
2023-06-16T22:21:24.249Z,2.80
2023-06-16T22:23:51.898Z,2.60
2023-06-16T22:26:20.394Z,2.60
2023-06-16T22:28:48.275Z,2.40
2023-06-16T22:33:43.198Z,2.80
2023-06-16T22:36:10.745Z,2.50
2023-06-16T22:38:38.210Z,2.00
2023-06-16T22:41:05.887Z,2.40
2023-06-16T22:43:33.469Z,2.00
2023-06-16T22:46:01.188Z,2.30
2023-06-16T22:48:32.018Z,2.10
2023-06-16T22:50:59.666Z,2.30
2023-06-16T22:53:27.114Z,2.20
2023-06-16T22:55:54.544Z,1.80
2023-06-16T22:58:21.945Z,2.00
2023-06-16T23:00:49.645Z,1.80
2023-06-16T23:03:17.160Z,1.80
2023-06-16T23:08:36.630Z,1.80
2023-06-16T23:11:06.719Z,1.80
2023-06-16T23:13:34.220Z,2.00
2023-06-16T23:16:01.886Z,1.90
2023-06-16T23:18:29.582Z,1.70
2023-06-16T23:20:57.039Z,1.70
2023-06-16T23:23:26.349Z,1.70
2023-06-16T23:25:56.024Z,1.80
2023-06-16T23:28:27.510Z,1.80
2023-06-16T23:30:56.645Z,1.50
2023-06-16T23:33:27.476Z,1.90
2023-06-16T23:35:55.020Z,1.50
2023-06-16T23:38:24.348Z,2.00
2023-06-16T23:40:52.046Z,1.90
2023-06-16T23:43:20.241Z,1.70
2023-06-16T23:45:47.987Z,1.80
2023-06-16T23:48:16.098Z,1.70
2023-06-16T23:50:43.749Z,1.70
2023-06-16T23:53:11.502Z,1.90
2023-06-16T23:55:39.852Z,1.70
